aviador You're here:

KAOO Decoded Metar

ALTOONA in PA, USA
Report Time2017-05-23 19:53:00
UTC Time2017-05-23 20:29:31
Flight Rules vfr VFR
Wind160° at 08 kt
W.Decomp.*RWY 21: 6.1 kt HW 5.1 kt LCW
RWY 12: 5.1 kt HW 6.1 kt RCW
W.Rank160° ranks 17
Current wind is above 160° avg. (6.6)
Visibility9999 m
Phenomena:N/A
Clouds:N/A
Expected CloudBase > 4,400 ft AGL from Temp-Dew spread
CeilingNone
Temp19°C (ISA +7)
Dew Point08°C (49% RH)
AAT15.7°C
QNH1011 hPa
Density Alt2,523 ft
Elevation1,493 ft
Report Wrong Elevation
Raw Report
KAOO 231953Z AUTO 16008KT 10SM CLR 19/08 A2986 RMK AO2 SLP111
T01940078=

Extra information for KAOO:More info

Metar Taf Metar & Taf Last 4 Metars F.Rules Stats Wind Profile Meteogram Temp Stats Airport Information Weather charts Add Link Nearby VenuesMetar ALERT Operation Metar Decoded Social comments

AIRNAV info for KAOO